sensor_id;sensor_type;location;lat;lon;timestamp;temperature;humidity
31369;DHT22;18004;48.416;10.066;2024-02-14T00:00:16;2.70;99.90
31369;DHT22;18004;48.416;10.066;2024-02-14T00:02:45;2.70;99.90
31369;DHT22;18004;48.416;10.066;2024-02-14T00:05:15;2.60;99.90
31369;DHT22;18004;48.416;10.066;2024-02-14T00:07:41;2.60;99.90
31369;DHT22;18004;48.416;10.066;2024-02-14T00:10:07;2.60;99.90
31369;DHT22;18004;48.416;10.066;2024-02-14T00:12:33;2.50;99.90
31369;DHT22;18004;48.416;10.066;2024-02-14T00:15:00;2.60;99.90
31369;DHT22;18004;48.416;10.066;2024-02-14T00:17:26;2.60;99.90
31369;DHT22;18004;48.416;10.066;2024-02-14T00:19:52;2.60;99.90
31369;DHT22;18004;48.416;10.066;2024-02-14T00:22:18;2.60;99.90
31369;DHT22;18004;48.416;10.066;2024-02-14T00:24:43;2.60;99.90
31369;DHT22;18004;48.416;10.066;2024-02-14T00:27:09;2.60;99.90
31369;DHT22;18004;48.416;10.066;2024-02-14T00:29:35;2.60;99.90
31369;DHT22;18004;48.416;10.066;2024-02-14T00:32:01;2.40;99.90
31369;DHT22;18004;48.416;10.066;2024-02-14T00:34:27;2.40;99.90
31369;DHT22;18004;48.416;10.066;2024-02-14T00:36:53;2.30;99.90
31369;DHT22;18004;48.416;10.066;2024-02-14T00:39:18;2.30;99.90
31369;DHT22;18004;48.416;10.066;2024-02-14T00:41:46;2.20;99.90
31369;DHT22;18004;48.416;10.066;2024-02-14T00:44:13;2.20;99.90
31369;DHT22;18004;48.416;10.066;2024-02-14T00:46:43;2.10;99.90
31369;DHT22;18004;48.416;10.066;2024-02-14T00:49:10;2.10;99.90
31369;DHT22;18004;48.416;10.066;2024-02-14T00:51:36;2.10;99.90
31369;DHT22;18004;48.416;10.066;2024-02-14T00:54:04;2.10;99.90
31369;DHT22;18004;48.416;10.066;2024-02-14T00:56:29;2.00;99.90
31369;DHT22;18004;48.416;10.066;2024-02-14T00:58:55;2.00;99.90
31369;DHT22;18004;48.416;10.066;2024-02-14T01:01:22;1.90;99.90
31369;DHT22;18004;48.416;10.066;2024-02-14T01:03:48;1.80;99.90
31369;DHT22;18004;48.416;10.066;2024-02-14T01:06:14;1.90;99.90
31369;DHT22;18004;48.416;10.066;2024-02-14T01:08:41;1.90;99.90
31369;DHT22;18004;48.416;10.066;2024-02-14T01:11:08;1.90;99.90
31369;DHT22;18004;48.416;10.066;2024-02-14T01:13:34;1.90;99.90
31369;DHT22;18004;48.416;10.066;2024-02-14T01:16:00;2.00;99.90
31369;DHT22;18004;48.416;10.066;2024-02-14T01:18:25;1.90;99.90
31369;DHT22;18004;48.416;10.066;2024-02-14T01:20:51;1.80;99.90
31369;DHT22;18004;48.416;10.066;2024-02-14T01:23:17;1.90;99.90
31369;DHT22;18004;48.416;10.066;2024-02-14T01:25:42;1.90;99.90
31369;DHT22;18004;48.416;10.066;2024-02-14T01:28:09;2.00;99.90
31369;DHT22;18004;48.416;10.066;2024-02-14T01:30:35;2.00;99.90
31369;DHT22;18004;48.416;10.066;2024-02-14T01:33:02;2.10;99.90
31369;DHT22;18004;48.416;10.066;2024-02-14T01:35:29;2.10;99.90
31369;DHT22;18004;48.416;10.066;2024-02-14T01:37:55;2.10;99.90
31369;DHT22;18004;48.416;10.066;2024-02-14T01:40:21;2.10;99.90
31369;DHT22;18004;48.416;10.066;2024-02-14T01:42:47;2.10;99.90
31369;DHT22;18004;48.416;10.066;2024-02-14T01:45:13;2.10;99.90
31369;DHT22;18004;48.416;10.066;2024-02-14T01:47:39;2.00;99.90
31369;DHT22;18004;48.416;10.066;2024-02-14T01:50:08;2.10;99.90
31369;DHT22;18004;48.416;10.066;2024-02-14T01:52:39;2.00;99.90
31369;DHT22;18004;48.416;10.066;2024-02-14T01:55:07;2.00;99.90
31369;DHT22;18004;48.416;10.066;2024-02-14T01:57:33;2.00;99.90
31369;DHT22;18004;48.416;10.066;2024-02-14T02:00:02;2.00;99.90
31369;DHT22;18004;48.416;10.066;2024-02-14T02:02:36;1.90;99.90
31369;DHT22;18004;48.416;10.066;2024-02-14T02:05:03;1.90;99.90
31369;DHT22;18004;48.416;10.066;2024-02-14T02:07:32;1.90;99.90
31369;DHT22;18004;48.416;10.066;2024-02-14T02:09:57;1.90;99.90
31369;DHT22;18004;48.416;10.066;2024-02-14T02:12:23;1.80;99.90
31369;DHT22;18004;48.416;10.066;2024-02-14T02:14:50;1.80;99.90
31369;DHT22;18004;48.416;10.066;2024-02-14T02:17:16;1.80;99.90
31369;DHT22;18004;48.416;10.066;2024-02-14T02:19:43;1.80;99.90
31369;DHT22;18004;48.416;10.066;2024-02-14T02:22:09;1.80;99.90
31369;DHT22;18004;48.416;10.066;2024-02-14T02:24:35;1.80;99.90
31369;DHT22;18004;48.416;10.066;2024-02-14T02:27:02;1.80;99.90
31369;DHT22;18004;48.416;10.066;2024-02-14T02:29:27;1.90;99.90
31369;DHT22;18004;48.416;10.066;2024-02-14T02:31:53;1.90;99.90
31369;DHT22;18004;48.416;10.066;2024-02-14T02:34:19;1.90;99.90
31369;DHT22;18004;48.416;10.066;2024-02-14T02:36:45;1.90;99.90
31369;DHT22;18004;48.416;10.066;2024-02-14T02:39:14;1.90;99.90
31369;DHT22;18004;48.416;10.066;2024-02-14T02:41:39;1.90;99.90
31369;DHT22;18004;48.416;10.066;2024-02-14T02:44:05;2.00;99.90
31369;DHT22;18004;48.416;10.066;2024-02-14T02:46:33;2.00;99.90
31369;DHT22;18004;48.416;10.066;2024-02-14T02:48:59;2.00;99.90
31369;DHT22;18004;48.416;10.066;2024-02-14T02:51:25;2.00;99.90
31369;DHT22;18004;48.416;10.066;2024-02-14T02:53:52;2.00;99.90
31369;DHT22;18004;48.416;10.066;2024-02-14T02:56:18;1.90;99.90
31369;DHT22;18004;48.416;10.066;2024-02-14T02:58:44;2.00;99.90
31369;DHT22;18004;48.416;10.066;2024-02-14T03:01:10;2.00;99.90
31369;DHT22;18004;48.416;10.066;2024-02-14T03:03:38;2.00;99.90
31369;DHT22;18004;48.416;10.066;2024-02-14T03:06:05;2.00;99.90
31369;DHT22;18004;48.416;10.066;2024-02-14T03:08:31;2.10;99.90
31369;DHT22;18004;48.416;10.066;2024-02-14T03:11:08;2.10;99.90
31369;DHT22;18004;48.416;10.066;2024-02-14T03:13:34;2.10;99.90
31369;DHT22;18004;48.416;10.066;2024-02-14T03:16:01;2.10;99.90
31369;DHT22;18004;48.416;10.066;2024-02-14T03:18:27;2.20;99.90
31369;DHT22;18004;48.416;10.066;2024-02-14T03:20:56;2.20;99.90
31369;DHT22;18004;48.416;10.066;2024-02-14T03:23:21;2.20;99.90
31369;DHT22;18004;48.416;10.066;2024-02-14T03:25:48;2.20;99.90
31369;DHT22;18004;48.416;10.066;2024-02-14T03:28:13;2.20;99.90
31369;DHT22;18004;48.416;10.066;2024-02-14T03:30:40;2.30;99.90
31369;DHT22;18004;48.416;10.066;2024-02-14T03:33:06;2.30;99.90
31369;DHT22;18004;48.416;10.066;2024-02-14T03:35:33;2.40;99.90
31369;DHT22;18004;48.416;10.066;2024-02-14T03:38:02;2.40;99.90
31369;DHT22;18004;48.416;10.066;2024-02-14T03:40:28;2.50;99.90
31369;DHT22;18004;48.416;10.066;2024-02-14T03:42:56;2.50;99.90
31369;DHT22;18004;48.416;10.066;2024-02-14T03:45:22;2.50;99.90
31369;DHT22;18004;48.416;10.066;2024-02-14T03:47:48;2.50;99.90
31369;DHT22;18004;48.416;10.066;2024-02-14T03:50:14;2.50;99.90
31369;DHT22;18004;48.416;10.066;2024-02-14T03:52:40;2.50;99.90
31369;DHT22;18004;48.416;10.066;2024-02-14T03:55:08;2.50;99.90
31369;DHT22;18004;48.416;10.066;2024-02-14T03:57:34;2.50;99.90
31369;DHT22;18004;48.416;10.066;2024-02-14T04:00:04;2.50;99.90
31369;DHT22;18004;48.416;10.066;2024-02-14T04:02:33;2.60;99.90
31369;DHT22;18004;48.416;10.066;2024-02-14T04:05:00;2.60;99.90
31369;DHT22;18004;48.416;10.066;2024-02-14T04:07:28;2.60;99.90
31369;DHT22;18004;48.416;10.066;2024-02-14T04:09:55;2.70;99.90
31369;DHT22;18004;48.416;10.066;2024-02-14T04:12:21;2.60;99.90
31369;DHT22;18004;48.416;10.066;2024-02-14T04:14:47;2.70;99.90
31369;DHT22;18004;48.416;10.066;2024-02-14T04:17:12;2.70;99.90
31369;DHT22;18004;48.416;10.066;2024-02-14T04:19:41;2.70;99.90
31369;DHT22;18004;48.416;10.066;2024-02-14T04:22:07;2.70;99.90
31369;DHT22;18004;48.416;10.066;2024-02-14T04:24:34;2.70;99.90
31369;DHT22;18004;48.416;10.066;2024-02-14T04:27:00;2.70;99.90
31369;DHT22;18004;48.416;10.066;2024-02-14T04:29:28;2.70;99.90
31369;DHT22;18004;48.416;10.066;2024-02-14T04:31:56;2.70;99.90
31369;DHT22;18004;48.416;10.066;2024-02-14T04:34:23;2.70;99.90
31369;DHT22;18004;48.416;10.066;2024-02-14T04:36:49;2.70;99.90
31369;DHT22;18004;48.416;10.066;2024-02-14T04:39:21;2.70;99.90
31369;DHT22;18004;48.416;10.066;2024-02-14T04:41:47;2.70;99.90
31369;DHT22;18004;48.416;10.066;2024-02-14T04:44:12;2.70;99.90
31369;DHT22;18004;48.416;10.066;2024-02-14T04:46:38;2.80;99.90
31369;DHT22;18004;48.416;10.066;2024-02-14T04:49:09;2.80;99.90
31369;DHT22;18004;48.416;10.066;2024-02-14T04:51:35;2.90;99.90
31369;DHT22;18004;48.416;10.066;2024-02-14T04:54:01;2.90;99.90
31369;DHT22;18004;48.416;10.066;2024-02-14T04:56:27;2.90;99.90
31369;DHT22;18004;48.416;10.066;2024-02-14T04:58:56;2.90;99.90
31369;DHT22;18004;48.416;10.066;2024-02-14T05:01:21;2.90;99.90
31369;DHT22;18004;48.416;10.066;2024-02-14T05:03:48;3.00;99.90
31369;DHT22;18004;48.416;10.066;2024-02-14T05:06:15;3.00;99.90
31369;DHT22;18004;48.416;10.066;2024-02-14T05:08:41;3.00;99.90
31369;DHT22;18004;48.416;10.066;2024-02-14T05:11:07;3.00;99.90
31369;DHT22;18004;48.416;10.066;2024-02-14T05:13:32;3.00;99.90
31369;DHT22;18004;48.416;10.066;2024-02-14T05:16:01;3.00;99.90
31369;DHT22;18004;48.416;10.066;2024-02-14T05:18:27;3.00;99.90
31369;DHT22;18004;48.416;10.066;2024-02-14T05:20:53;3.00;99.90
31369;DHT22;18004;48.416;10.066;2024-02-14T05:23:19;3.00;99.90
31369;DHT22;18004;48.416;10.066;2024-02-14T05:25:45;3.00;99.90
31369;DHT22;18004;48.416;10.066;2024-02-14T05:28:11;3.00;99.90
31369;DHT22;18004;48.416;10.066;2024-02-14T05:30:43;3.00;99.90
31369;DHT22;18004;48.416;10.066;2024-02-14T05:33:09;3.00;99.90
31369;DHT22;18004;48.416;10.066;2024-02-14T05:35:34;3.00;99.90
31369;DHT22;18004;48.416;10.066;2024-02-14T05:38:00;3.00;99.90
31369;DHT22;18004;48.416;10.066;2024-02-14T05:40:26;3.00;99.90
31369;DHT22;18004;48.416;10.066;2024-02-14T05:42:52;2.90;99.90
31369;DHT22;18004;48.416;10.066;2024-02-14T05:45:18;2.90;99.90
31369;DHT22;18004;48.416;10.066;2024-02-14T05:47:43;2.90;99.90
31369;DHT22;18004;48.416;10.066;2024-02-14T05:50:09;2.90;99.90
31369;DHT22;18004;48.416;10.066;2024-02-14T05:52:38;2.90;99.90
31369;DHT22;18004;48.416;10.066;2024-02-14T05:55:04;2.90;99.90
31369;DHT22;18004;48.416;10.066;2024-02-14T05:57:30;2.90;99.90
31369;DHT22;18004;48.416;10.066;2024-02-14T05:59:56;2.90;99.90
31369;DHT22;18004;48.416;10.066;2024-02-14T06:02:22;2.90;99.90
31369;DHT22;18004;48.416;10.066;2024-02-14T06:04:47;3.00;99.90
31369;DHT22;18004;48.416;10.066;2024-02-14T06:07:13;3.00;99.90
31369;DHT22;18004;48.416;10.066;2024-02-14T06:09:39;3.10;99.90
31369;DHT22;18004;48.416;10.066;2024-02-14T06:12:05;3.10;99.90
31369;DHT22;18004;48.416;10.066;2024-02-14T06:14:30;3.20;99.90
31369;DHT22;18004;48.416;10.066;2024-02-14T06:16:59;3.20;99.90
31369;DHT22;18004;48.416;10.066;2024-02-14T06:19:26;3.20;99.90
31369;DHT22;18004;48.416;10.066;2024-02-14T06:21:52;3.20;99.90
31369;DHT22;18004;48.416;10.066;2024-02-14T06:24:18;3.20;99.90
31369;DHT22;18004;48.416;10.066;2024-02-14T06:26:45;3.30;99.90
31369;DHT22;18004;48.416;10.066;2024-02-14T06:29:10;3.30;99.90
31369;DHT22;18004;48.416;10.066;2024-02-14T06:31:36;3.30;99.90
31369;DHT22;18004;48.416;10.066;2024-02-14T06:34:02;3.40;99.90
31369;DHT22;18004;48.416;10.066;2024-02-14T06:36:28;3.40;99.90
31369;DHT22;18004;48.416;10.066;2024-02-14T06:38:53;3.50;99.90
31369;DHT22;18004;48.416;10.066;2024-02-14T06:41:19;3.50;99.90
31369;DHT22;18004;48.416;10.066;2024-02-14T06:43:46;3.60;99.90
31369;DHT22;18004;48.416;10.066;2024-02-14T06:46:11;3.60;99.90
31369;DHT22;18004;48.416;10.066;2024-02-14T06:48:37;3.70;99.90
31369;DHT22;18004;48.416;10.066;2024-02-14T06:51:03;3.70;99.90
31369;DHT22;18004;48.416;10.066;2024-02-14T06:53:29;3.80;99.90
31369;DHT22;18004;48.416;10.066;2024-02-14T06:55:56;3.80;99.90
31369;DHT22;18004;48.416;10.066;2024-02-14T06:58:21;3.80;99.90
31369;DHT22;18004;48.416;10.066;2024-02-14T07:00:47;3.90;99.90
31369;DHT22;18004;48.416;10.066;2024-02-14T07:03:13;3.90;99.90
31369;DHT22;18004;48.416;10.066;2024-02-14T07:05:39;4.00;99.90
31369;DHT22;18004;48.416;10.066;2024-02-14T07:08:05;4.00;99.90
31369;DHT22;18004;48.416;10.066;2024-02-14T07:10:31;4.10;99.90
31369;DHT22;18004;48.416;10.066;2024-02-14T07:12:57;4.10;99.90
31369;DHT22;18004;48.416;10.066;2024-02-14T07:15:23;4.10;99.90
31369;DHT22;18004;48.416;10.066;2024-02-14T07:17:56;4.10;99.90
31369;DHT22;18004;48.416;10.066;2024-02-14T07:20:24;4.10;99.90
31369;DHT22;18004;48.416;10.066;2024-02-14T07:22:52;4.10;99.90
31369;DHT22;18004;48.416;10.066;2024-02-14T07:25:22;4.20;99.90
31369;DHT22;18004;48.416;10.066;2024-02-14T07:27:49;4.20;99.90
31369;DHT22;18004;48.416;10.066;2024-02-14T07:30:18;4.30;99.90
31369;DHT22;18004;48.416;10.066;2024-02-14T07:32:44;4.30;99.90
31369;DHT22;18004;48.416;10.066;2024-02-14T07:35:10;4.30;99.90
31369;DHT22;18004;48.416;10.066;2024-02-14T07:37:36;4.40;99.90
31369;DHT22;18004;48.416;10.066;2024-02-14T07:40:02;4.40;99.90
31369;DHT22;18004;48.416;10.066;2024-02-14T07:42:28;4.40;99.90
31369;DHT22;18004;48.416;10.066;2024-02-14T07:44:54;4.40;99.90
31369;DHT22;18004;48.416;10.066;2024-02-14T07:47:21;4.40;99.90
31369;DHT22;18004;48.416;10.066;2024-02-14T07:49:47;4.50;99.90
31369;DHT22;18004;48.416;10.066;2024-02-14T07:52:13;4.50;99.90
31369;DHT22;18004;48.416;10.066;2024-02-14T07:54:39;4.60;99.90
31369;DHT22;18004;48.416;10.066;2024-02-14T07:57:05;4.60;99.90
31369;DHT22;18004;48.416;10.066;2024-02-14T07:59:31;4.70;99.90
31369;DHT22;18004;48.416;10.066;2024-02-14T08:01:56;4.70;99.90
31369;DHT22;18004;48.416;10.066;2024-02-14T08:04:22;4.70;99.90
31369;DHT22;18004;48.416;10.066;2024-02-14T08:06:48;4.70;99.90
31369;DHT22;18004;48.416;10.066;2024-02-14T08:09:17;4.80;99.90
31369;DHT22;18004;48.416;10.066;2024-02-14T08:11:42;4.80;99.90
31369;DHT22;18004;48.416;10.066;2024-02-14T08:14:08;4.80;99.90
31369;DHT22;18004;48.416;10.066;2024-02-14T08:16:34;4.90;99.90
31369;DHT22;18004;48.416;10.066;2024-02-14T08:19:02;4.90;99.90
31369;DHT22;18004;48.416;10.066;2024-02-14T08:21:28;4.90;99.90
31369;DHT22;18004;48.416;10.066;2024-02-14T08:23:54;4.90;99.90
31369;DHT22;18004;48.416;10.066;2024-02-14T08:26:23;4.90;99.90
31369;DHT22;18004;48.416;10.066;2024-02-14T08:28:50;5.00;99.90
31369;DHT22;18004;48.416;10.066;2024-02-14T08:31:15;5.10;99.90
31369;DHT22;18004;48.416;10.066;2024-02-14T08:33:42;5.10;99.90
31369;DHT22;18004;48.416;10.066;2024-02-14T08:36:08;5.20;99.90
31369;DHT22;18004;48.416;10.066;2024-02-14T08:38:34;5.20;99.90
31369;DHT22;18004;48.416;10.066;2024-02-14T08:41:03;5.20;99.90
31369;DHT22;18004;48.416;10.066;2024-02-14T08:43:29;5.30;99.90
31369;DHT22;18004;48.416;10.066;2024-02-14T08:45:55;5.30;99.90
31369;DHT22;18004;48.416;10.066;2024-02-14T08:48:22;5.40;99.90
31369;DHT22;18004;48.416;10.066;2024-02-14T08:50:48;5.40;99.90
31369;DHT22;18004;48.416;10.066;2024-02-14T08:53:14;5.50;99.90
31369;DHT22;18004;48.416;10.066;2024-02-14T08:55:40;5.60;99.90
31369;DHT22;18004;48.416;10.066;2024-02-14T08:58:06;5.60;99.90
31369;DHT22;18004;48.416;10.066;2024-02-14T09:00:32;5.70;99.90
31369;DHT22;18004;48.416;10.066;2024-02-14T09:03:00;5.70;99.90
31369;DHT22;18004;48.416;10.066;2024-02-14T09:05:26;5.80;99.90
31369;DHT22;18004;48.416;10.066;2024-02-14T09:07:54;5.90;99.90
31369;DHT22;18004;48.416;10.066;2024-02-14T09:10:20;5.90;99.90
31369;DHT22;18004;48.416;10.066;2024-02-14T09:12:46;6.00;99.90
31369;DHT22;18004;48.416;10.066;2024-02-14T09:15:11;6.10;99.90
31369;DHT22;18004;48.416;10.066;2024-02-14T09:17:38;6.20;99.90
31369;DHT22;18004;48.416;10.066;2024-02-14T09:20:06;6.30;99.90
31369;DHT22;18004;48.416;10.066;2024-02-14T09:22:38;6.30;99.90
31369;DHT22;18004;48.416;10.066;2024-02-14T09:25:04;6.40;99.90
31369;DHT22;18004;48.416;10.066;2024-02-14T09:27:31;6.40;99.90
31369;DHT22;18004;48.416;10.066;2024-02-14T09:29:56;6.50;99.90
31369;DHT22;18004;48.416;10.066;2024-02-14T09:32:22;6.60;99.90
31369;DHT22;18004;48.416;10.066;2024-02-14T09:34:48;6.60;99.90
31369;DHT22;18004;48.416;10.066;2024-02-14T09:37:14;6.70;99.90
31369;DHT22;18004;48.416;10.066;2024-02-14T09:39:40;6.80;99.90
31369;DHT22;18004;48.416;10.066;2024-02-14T09:42:11;6.90;99.90
31369;DHT22;18004;48.416;10.066;2024-02-14T09:44:40;7.10;99.90
31369;DHT22;18004;48.416;10.066;2024-02-14T09:47:07;7.20;99.90
31369;DHT22;18004;48.416;10.066;2024-02-14T09:49:35;7.40;99.90
31369;DHT22;18004;48.416;10.066;2024-02-14T09:52:02;7.40;99.90
31369;DHT22;18004;48.416;10.066;2024-02-14T09:54:29;7.50;99.90
31369;DHT22;18004;48.416;10.066;2024-02-14T09:56:57;7.60;99.90
31369;DHT22;18004;48.416;10.066;2024-02-14T09:59:24;7.70;99.90
31369;DHT22;18004;48.416;10.066;2024-02-14T10:01:49;7.80;99.90
31369;DHT22;18004;48.416;10.066;2024-02-14T10:04:17;8.10;99.90
31369;DHT22;18004;48.416;10.066;2024-02-14T10:06:45;8.20;99.90
31369;DHT22;18004;48.416;10.066;2024-02-14T10:09:11;8.40;99.90
31369;DHT22;18004;48.416;10.066;2024-02-14T10:11:37;8.40;99.90
31369;DHT22;18004;48.416;10.066;2024-02-14T10:14:06;8.40;99.90
31369;DHT22;18004;48.416;10.066;2024-02-14T10:16:37;8.60;99.90
31369;DHT22;18004;48.416;10.066;2024-02-14T10:19:03;8.70;99.90
31369;DHT22;18004;48.416;10.066;2024-02-14T10:21:29;8.90;99.90
31369;DHT22;18004;48.416;10.066;2024-02-14T10:24:00;9.00;99.90
31369;DHT22;18004;48.416;10.066;2024-02-14T10:26:25;9.10;99.90
31369;DHT22;18004;48.416;10.066;2024-02-14T10:28:51;9.20;99.90
31369;DHT22;18004;48.416;10.066;2024-02-14T10:31:17;9.20;99.90
31369;DHT22;18004;48.416;10.066;2024-02-14T10:33:43;9.30;99.90
31369;DHT22;18004;48.416;10.066;2024-02-14T10:36:09;9.40;99.90
31369;DHT22;18004;48.416;10.066;2024-02-14T10:38:37;9.40;99.90
31369;DHT22;18004;48.416;10.066;2024-02-14T10:41:05;9.40;99.90
31369;DHT22;18004;48.416;10.066;2024-02-14T10:43:31;9.40;99.90
31369;DHT22;18004;48.416;10.066;2024-02-14T10:45:59;9.40;99.90
31369;DHT22;18004;48.416;10.066;2024-02-14T10:48:28;9.50;99.90
31369;DHT22;18004;48.416;10.066;2024-02-14T10:50:59;9.50;99.90
31369;DHT22;18004;48.416;10.066;2024-02-14T10:53:29;9.60;99.90
31369;DHT22;18004;48.416;10.066;2024-02-14T10:55:57;9.50;99.90
31369;DHT22;18004;48.416;10.066;2024-02-14T10:58:24;9.50;99.90
31369;DHT22;18004;48.416;10.066;2024-02-14T11:00:51;9.50;99.90
31369;DHT22;18004;48.416;10.066;2024-02-14T11:03:17;9.50;99.90
31369;DHT22;18004;48.416;10.066;2024-02-14T11:05:45;9.60;99.90
31369;DHT22;18004;48.416;10.066;2024-02-14T11:08:21;9.70;99.90
31369;DHT22;18004;48.416;10.066;2024-02-14T11:10:55;9.80;99.90
31369;DHT22;18004;48.416;10.066;2024-02-14T11:13:25;9.90;99.90
31369;DHT22;18004;48.416;10.066;2024-02-14T11:15:52;9.90;99.90
31369;DHT22;18004;48.416;10.066;2024-02-14T11:18:27;9.90;99.90
31369;DHT22;18004;48.416;10.066;2024-02-14T11:20:55;9.80;99.90
31369;DHT22;18004;48.416;10.066;2024-02-14T11:23:23;9.80;99.90
31369;DHT22;18004;48.416;10.066;2024-02-14T11:25:49;9.80;99.90
31369;DHT22;18004;48.416;10.066;2024-02-14T11:28:19;9.80;99.90
31369;DHT22;18004;48.416;10.066;2024-02-14T11:30:45;9.80;99.90
31369;DHT22;18004;48.416;10.066;2024-02-14T11:33:24;9.90;99.90
31369;DHT22;18004;48.416;10.066;2024-02-14T11:35:51;10.00;99.90
31369;DHT22;18004;48.416;10.066;2024-02-14T11:38:19;10.20;99.90
31369;DHT22;18004;48.416;10.066;2024-02-14T11:40:45;10.30;99.90
31369;DHT22;18004;48.416;10.066;2024-02-14T11:43:12;10.40;99.90
31369;DHT22;18004;48.416;10.066;2024-02-14T11:45:39;10.50;99.80
31369;DHT22;18004;48.416;10.066;2024-02-14T11:48:17;10.50;99.80
31369;DHT22;18004;48.416;10.066;2024-02-14T11:50:44;10.50;99.50
31369;DHT22;18004;48.416;10.066;2024-02-14T11:53:11;10.70;99.30
31369;DHT22;18004;48.416;10.066;2024-02-14T11:55:40;10.70;99.50
31369;DHT22;18004;48.416;10.066;2024-02-14T11:58:10;10.70;97.80
31369;DHT22;18004;48.416;10.066;2024-02-14T12:00:44;10.80;99.90
31369;DHT22;18004;48.416;10.066;2024-02-14T12:03:16;10.80;99.00
31369;DHT22;18004;48.416;10.066;2024-02-14T12:05:42;10.90;97.30
31369;DHT22;18004;48.416;10.066;2024-02-14T12:08:09;11.00;96.90
31369;DHT22;18004;48.416;10.066;2024-02-14T12:10:36;11.00;99.10
31369;DHT22;18004;48.416;10.066;2024-02-14T12:13:13;11.00;99.90
31369;DHT22;18004;48.416;10.066;2024-02-14T12:15:40;11.10;97.50
31369;DHT22;18004;48.416;10.066;2024-02-14T12:18:08;11.20;96.20
31369;DHT22;18004;48.416;10.066;2024-02-14T12:20:35;11.20;96.80
31369;DHT22;18004;48.416;10.066;2024-02-14T12:23:02;11.30;96.50
31369;DHT22;18004;48.416;10.066;2024-02-14T12:25:30;11.40;97.40
31369;DHT22;18004;48.416;10.066;2024-02-14T12:27:59;11.40;94.50
31369;DHT22;18004;48.416;10.066;2024-02-14T12:30:48;11.40;95.60
31369;DHT22;18004;48.416;10.066;2024-02-14T12:33:24;11.50;94.60
31369;DHT22;18004;48.416;10.066;2024-02-14T12:35:51;11.70;94.90
31369;DHT22;18004;48.416;10.066;2024-02-14T12:38:19;11.70;93.70
31369;DHT22;18004;48.416;10.066;2024-02-14T12:40:45;11.70;94.10
31369;DHT22;18004;48.416;10.066;2024-02-14T12:43:13;11.80;94.50
31369;DHT22;18004;48.416;10.066;2024-02-14T12:45:40;11.80;94.50
31369;DHT22;18004;48.416;10.066;2024-02-14T12:48:11;11.70;97.50
31369;DHT22;18004;48.416;10.066;2024-02-14T12:50:38;11.70;97.10
31369;DHT22;18004;48.416;10.066;2024-02-14T12:53:07;11.70;96.20
31369;DHT22;18004;48.416;10.066;2024-02-14T12:55:33;11.90;95.70
31369;DHT22;18004;48.416;10.066;2024-02-14T12:57:59;12.10;96.20
31369;DHT22;18004;48.416;10.066;2024-02-14T13:00:26;12.20;96.20
31369;DHT22;18004;48.416;10.066;2024-02-14T13:02:52;12.20;93.90
31369;DHT22;18004;48.416;10.066;2024-02-14T13:05:19;12.30;91.70
31369;DHT22;18004;48.416;10.066;2024-02-14T13:07:45;12.30;92.70
31369;DHT22;18004;48.416;10.066;2024-02-14T13:10:12;12.40;95.00
31369;DHT22;18004;48.416;10.066;2024-02-14T13:12:38;12.50;89.30
31369;DHT22;18004;48.416;10.066;2024-02-14T13:15:07;12.40;90.10
31369;DHT22;18004;48.416;10.066;2024-02-14T13:17:33;12.30;92.10
31369;DHT22;18004;48.416;10.066;2024-02-14T13:19:59;12.30;93.10
31369;DHT22;18004;48.416;10.066;2024-02-14T13:22:28;12.30;94.60
31369;DHT22;18004;48.416;10.066;2024-02-14T13:24:53;12.30;94.20
31369;DHT22;18004;48.416;10.066;2024-02-14T13:27:19;12.20;95.10
31369;DHT22;18004;48.416;10.066;2024-02-14T13:29:49;12.20;98.00
31369;DHT22;18004;48.416;10.066;2024-02-14T13:32:15;12.20;97.40
31369;DHT22;18004;48.416;10.066;2024-02-14T13:34:41;12.20;97.70
31369;DHT22;18004;48.416;10.066;2024-02-14T13:37:09;12.20;96.80
31369;DHT22;18004;48.416;10.066;2024-02-14T13:39:35;12.20;97.40
31369;DHT22;18004;48.416;10.066;2024-02-14T13:42:01;12.20;96.70
31369;DHT22;18004;48.416;10.066;2024-02-14T13:44:27;12.20;98.40
31369;DHT22;18004;48.416;10.066;2024-02-14T13:46:53;12.20;98.50
31369;DHT22;18004;48.416;10.066;2024-02-14T13:49:19;12.30;98.90
31369;DHT22;18004;48.416;10.066;2024-02-14T13:51:49;12.40;98.30
31369;DHT22;18004;48.416;10.066;2024-02-14T13:54:17;12.30;96.50
31369;DHT22;18004;48.416;10.066;2024-02-14T13:56:43;12.30;98.30
31369;DHT22;18004;48.416;10.066;2024-02-14T13:59:09;12.40;98.20
31369;DHT22;18004;48.416;10.066;2024-02-14T14:01:35;12.40;96.90
31369;DHT22;18004;48.416;10.066;2024-02-14T14:04:01;12.30;98.60
31369;DHT22;18004;48.416;10.066;2024-02-14T14:06:26;12.40;99.90
31369;DHT22;18004;48.416;10.066;2024-02-14T14:08:52;12.40;97.70
31369;DHT22;18004;48.416;10.066;2024-02-14T14:11:18;12.40;98.20
31369;DHT22;18004;48.416;10.066;2024-02-14T14:13:44;12.40;98.20
31369;DHT22;18004;48.416;10.066;2024-02-14T14:16:09;12.40;99.50
31369;DHT22;18004;48.416;10.066;2024-02-14T14:18:36;12.50;99.90
31369;DHT22;18004;48.416;10.066;2024-02-14T14:21:02;12.50;99.50
31369;DHT22;18004;48.416;10.066;2024-02-14T14:23:29;12.50;99.90
31369;DHT22;18004;48.416;10.066;2024-02-14T14:25:54;12.50;99.90
31369;DHT22;18004;48.416;10.066;2024-02-14T14:28:20;12.50;99.90
31369;DHT22;18004;48.416;10.066;2024-02-14T14:30:56;12.50;99.90
31369;DHT22;18004;48.416;10.066;2024-02-14T14:33:22;12.50;99.90
31369;DHT22;18004;48.416;10.066;2024-02-14T14:35:48;12.50;99.90
31369;DHT22;18004;48.416;10.066;2024-02-14T14:38:21;12.40;99.90
31369;DHT22;18004;48.416;10.066;2024-02-14T14:40:47;12.40;99.90
31369;DHT22;18004;48.416;10.066;2024-02-14T14:43:14;12.40;99.90
31369;DHT22;18004;48.416;10.066;2024-02-14T14:45:40;12.50;99.90
31369;DHT22;18004;48.416;10.066;2024-02-14T14:48:07;12.40;99.90
31369;DHT22;18004;48.416;10.066;2024-02-14T14:50:35;12.40;99.90
31369;DHT22;18004;48.416;10.066;2024-02-14T14:53:01;12.40;99.90
31369;DHT22;18004;48.416;10.066;2024-02-14T14:55:50;12.40;99.90
31369;DHT22;18004;48.416;10.066;2024-02-14T14:58:16;12.40;99.90
31369;DHT22;18004;48.416;10.066;2024-02-14T15:00:43;12.40;99.90
31369;DHT22;18004;48.416;10.066;2024-02-14T15:03:09;12.40;99.90
31369;DHT22;18004;48.416;10.066;2024-02-14T15:05:37;12.40;99.90
31369;DHT22;18004;48.416;10.066;2024-02-14T15:08:04;12.40;99.90
31369;DHT22;18004;48.416;10.066;2024-02-14T15:10:31;12.30;99.90
31369;DHT22;18004;48.416;10.066;2024-02-14T15:12:56;12.30;99.90
31369;DHT22;18004;48.416;10.066;2024-02-14T15:15:22;12.30;99.90
31369;DHT22;18004;48.416;10.066;2024-02-14T15:17:49;12.20;99.90
31369;DHT22;18004;48.416;10.066;2024-02-14T15:20:14;12.20;99.90
31369;DHT22;18004;48.416;10.066;2024-02-14T15:22:40;12.20;99.90
31369;DHT22;18004;48.416;10.066;2024-02-14T15:25:06;12.20;99.90